sensor_id;sensor_type;location;lat;lon;timestamp;P1;durP1;ratioP1;P2;durP2;ratioP2
1601;SDS011;794;48.592;9.634;2023-03-04T00:00:18;47.77;;;27.33;;
1601;SDS011;794;48.592;9.634;2023-03-04T00:02:45;44.43;;;28.60;;
1601;SDS011;794;48.592;9.634;2023-03-04T00:05:12;42.57;;;25.17;;
1601;SDS011;794;48.592;9.634;2023-03-04T00:07:40;50.10;;;27.43;;
1601;SDS011;794;48.592;9.634;2023-03-04T00:10:08;52.70;;;27.50;;
1601;SDS011;794;48.592;9.634;2023-03-04T00:12:36;49.70;;;28.50;;
1601;SDS011;794;48.592;9.634;2023-03-04T00:15:03;49.80;;;29.47;;
1601;SDS011;794;48.592;9.634;2023-03-04T00:17:31;50.50;;;28.33;;
1601;SDS011;794;48.592;9.634;2023-03-04T00:19:57;52.37;;;31.40;;
1601;SDS011;794;48.592;9.634;2023-03-04T00:22:25;51.20;;;30.10;;
1601;SDS011;794;48.592;9.634;2023-03-04T00:24:53;45.40;;;30.27;;
1601;SDS011;794;48.592;9.634;2023-03-04T00:27:20;52.80;;;28.33;;
1601;SDS011;794;48.592;9.634;2023-03-04T00:29:47;50.67;;;28.60;;
1601;SDS011;794;48.592;9.634;2023-03-04T00:32:14;49.00;;;27.47;;
1601;SDS011;794;48.592;9.634;2023-03-04T00:34:42;49.57;;;28.80;;
1601;SDS011;794;48.592;9.634;2023-03-04T00:37:09;48.53;;;31.00;;
1601;SDS011;794;48.592;9.634;2023-03-04T00:39:36;53.63;;;30.90;;
1601;SDS011;794;48.592;9.634;2023-03-04T00:42:04;50.70;;;31.50;;
1601;SDS011;794;48.592;9.634;2023-03-04T00:44:31;51.50;;;30.97;;
1601;SDS011;794;48.592;9.634;2023-03-04T00:46:58;56.03;;;30.77;;
1601;SDS011;794;48.592;9.634;2023-03-04T00:49:25;49.07;;;31.43;;
1601;SDS011;794;48.592;9.634;2023-03-04T00:51:52;52.27;;;29.67;;
1601;SDS011;794;48.592;9.634;2023-03-04T00:54:19;50.63;;;29.10;;
1601;SDS011;794;48.592;9.634;2023-03-04T00:56:46;56.60;;;31.33;;
1601;SDS011;794;48.592;9.634;2023-03-04T00:59:15;44.50;;;27.50;;
1601;SDS011;794;48.592;9.634;2023-03-04T01:01:42;55.40;;;32.90;;
1601;SDS011;794;48.592;9.634;2023-03-04T01:04:08;53.07;;;29.70;;
1601;SDS011;794;48.592;9.634;2023-03-04T01:06:35;65.33;;;33.17;;
1601;SDS011;794;48.592;9.634;2023-03-04T01:09:02;53.63;;;28.30;;
1601;SDS011;794;48.592;9.634;2023-03-04T01:11:29;58.63;;;29.37;;
1601;SDS011;794;48.592;9.634;2023-03-04T01:13:56;50.67;;;28.80;;
1601;SDS011;794;48.592;9.634;2023-03-04T01:16:25;53.37;;;31.20;;
1601;SDS011;794;48.592;9.634;2023-03-04T01:18:52;56.90;;;31.50;;
1601;SDS011;794;48.592;9.634;2023-03-04T01:21:19;57.27;;;29.90;;
1601;SDS011;794;48.592;9.634;2023-03-04T01:23:46;59.27;;;31.10;;
1601;SDS011;794;48.592;9.634;2023-03-04T01:26:13;54.83;;;32.13;;
1601;SDS011;794;48.592;9.634;2023-03-04T01:28:39;57.13;;;32.43;;
1601;SDS011;794;48.592;9.634;2023-03-04T01:31:06;68.23;;;34.50;;
1601;SDS011;794;48.592;9.634;2023-03-04T01:33:35;48.77;;;29.07;;
1601;SDS011;794;48.592;9.634;2023-03-04T01:36:02;52.70;;;30.97;;
1601;SDS011;794;48.592;9.634;2023-03-04T01:38:29;48.70;;;31.70;;
1601;SDS011;794;48.592;9.634;2023-03-04T01:40:56;59.60;;;33.87;;
1601;SDS011;794;48.592;9.634;2023-03-04T01:43:24;60.97;;;33.03;;
1601;SDS011;794;48.592;9.634;2023-03-04T01:45:53;56.43;;;32.63;;
1601;SDS011;794;48.592;9.634;2023-03-04T01:48:23;63.37;;;34.40;;
1601;SDS011;794;48.592;9.634;2023-03-04T01:50:53;63.30;;;35.60;;
1601;SDS011;794;48.592;9.634;2023-03-04T01:53:21;60.10;;;34.37;;
1601;SDS011;794;48.592;9.634;2023-03-04T01:55:51;55.27;;;33.60;;
1601;SDS011;794;48.592;9.634;2023-03-04T01:58:19;63.07;;;33.97;;
1601;SDS011;794;48.592;9.634;2023-03-04T02:00:46;52.23;;;31.60;;
1601;SDS011;794;48.592;9.634;2023-03-04T02:03:14;53.27;;;32.83;;
1601;SDS011;794;48.592;9.634;2023-03-04T02:05:45;52.30;;;31.77;;
1601;SDS011;794;48.592;9.634;2023-03-04T02:08:19;53.40;;;32.30;;
1601;SDS011;794;48.592;9.634;2023-03-04T02:10:48;68.03;;;34.67;;
1601;SDS011;794;48.592;9.634;2023-03-04T02:13:16;51.50;;;30.90;;
1601;SDS011;794;48.592;9.634;2023-03-04T02:15:44;54.90;;;33.67;;
1601;SDS011;794;48.592;9.634;2023-03-04T02:18:14;53.37;;;31.40;;
1601;SDS011;794;48.592;9.634;2023-03-04T02:20:44;64.97;;;35.10;;
1601;SDS011;794;48.592;9.634;2023-03-04T02:23:20;50.67;;;31.30;;
1601;SDS011;794;48.592;9.634;2023-03-04T02:28:37;54.17;;;30.07;;
1601;SDS011;794;48.592;9.634;2023-03-04T02:31:05;53.30;;;31.30;;
1601;SDS011;794;48.592;9.634;2023-03-04T02:33:32;60.13;;;33.40;;
1601;SDS011;794;48.592;9.634;2023-03-04T02:35:59;63.10;;;32.50;;
1601;SDS011;794;48.592;9.634;2023-03-04T02:38:26;63.03;;;34.30;;
1601;SDS011;794;48.592;9.634;2023-03-04T02:40:53;54.33;;;31.67;;
1601;SDS011;794;48.592;9.634;2023-03-04T02:43:23;61.33;;;35.40;;
1601;SDS011;794;48.592;9.634;2023-03-04T02:45:51;55.20;;;30.13;;
1601;SDS011;794;48.592;9.634;2023-03-04T02:48:19;58.30;;;31.37;;
1601;SDS011;794;48.592;9.634;2023-03-04T02:50:48;45.53;;;29.63;;
1601;SDS011;794;48.592;9.634;2023-03-04T02:53:17;54.60;;;30.83;;
1601;SDS011;794;48.592;9.634;2023-03-04T02:55:45;58.37;;;31.10;;
1601;SDS011;794;48.592;9.634;2023-03-04T02:58:12;55.83;;;30.97;;
1601;SDS011;794;48.592;9.634;2023-03-04T03:00:41;63.47;;;35.23;;
1601;SDS011;794;48.592;9.634;2023-03-04T03:03:08;65.27;;;33.33;;
1601;SDS011;794;48.592;9.634;2023-03-04T03:05:35;50.20;;;30.27;;
1601;SDS011;794;48.592;9.634;2023-03-04T03:08:03;72.00;;;34.37;;
1601;SDS011;794;48.592;9.634;2023-03-04T03:10:31;51.33;;;32.17;;
1601;SDS011;794;48.592;9.634;2023-03-04T03:12:58;53.07;;;32.87;;
1601;SDS011;794;48.592;9.634;2023-03-04T03:15:25;53.07;;;29.63;;
1601;SDS011;794;48.592;9.634;2023-03-04T05:43:44;43.73;;;26.00;;
1601;SDS011;794;48.592;9.634;2023-03-04T05:46:12;43.53;;;25.47;;
1601;SDS011;794;48.592;9.634;2023-03-04T05:48:40;43.07;;;26.53;;
1601;SDS011;794;48.592;9.634;2023-03-04T05:51:08;48.33;;;28.00;;
1601;SDS011;794;48.592;9.634;2023-03-04T05:53:35;47.60;;;27.93;;
1601;SDS011;794;48.592;9.634;2023-03-04T05:56:05;47.00;;;27.30;;
1601;SDS011;794;48.592;9.634;2023-03-04T05:58:33;45.90;;;27.47;;
1601;SDS011;794;48.592;9.634;2023-03-04T06:01:02;47.90;;;26.47;;
1601;SDS011;794;48.592;9.634;2023-03-04T06:03:29;48.70;;;27.73;;
1601;SDS011;794;48.592;9.634;2023-03-04T06:05:56;41.83;;;22.30;;
1601;SDS011;794;48.592;9.634;2023-03-04T06:08:24;38.87;;;22.73;;
1601;SDS011;794;48.592;9.634;2023-03-04T06:10:52;45.47;;;26.30;;
1601;SDS011;794;48.592;9.634;2023-03-04T06:13:20;41.37;;;25.03;;
1601;SDS011;794;48.592;9.634;2023-03-04T06:15:52;43.63;;;25.23;;
1601;SDS011;794;48.592;9.634;2023-03-04T06:18:20;51.87;;;25.57;;
1601;SDS011;794;48.592;9.634;2023-03-04T06:20:48;51.57;;;26.00;;
1601;SDS011;794;48.592;9.634;2023-03-04T06:23:16;46.57;;;27.97;;
1601;SDS011;794;48.592;9.634;2023-03-04T06:25:43;58.13;;;27.10;;
1601;SDS011;794;48.592;9.634;2023-03-04T06:28:10;45.43;;;25.30;;
1601;SDS011;794;48.592;9.634;2023-03-04T06:30:37;49.80;;;27.40;;
1601;SDS011;794;48.592;9.634;2023-03-04T06:33:03;48.97;;;24.93;;
1601;SDS011;794;48.592;9.634;2023-03-04T06:35:32;44.50;;;29.00;;
1601;SDS011;794;48.592;9.634;2023-03-04T06:37:59;54.43;;;30.03;;
1601;SDS011;794;48.592;9.634;2023-03-04T06:40:26;45.87;;;27.20;;
1601;SDS011;794;48.592;9.634;2023-03-04T06:42:53;56.70;;;29.07;;
1601;SDS011;794;48.592;9.634;2023-03-04T06:45:20;53.00;;;26.77;;
1601;SDS011;794;48.592;9.634;2023-03-04T06:47:47;59.53;;;31.60;;
1601;SDS011;794;48.592;9.634;2023-03-04T06:50:13;59.97;;;31.20;;
1601;SDS011;794;48.592;9.634;2023-03-04T06:52:42;60.77;;;31.87;;
1601;SDS011;794;48.592;9.634;2023-03-04T06:55:09;57.73;;;32.70;;
1601;SDS011;794;48.592;9.634;2023-03-04T06:57:37;63.97;;;35.90;;
1601;SDS011;794;48.592;9.634;2023-03-04T07:00:04;61.63;;;35.90;;
1601;SDS011;794;48.592;9.634;2023-03-04T07:02:32;66.63;;;37.07;;
1601;SDS011;794;48.592;9.634;2023-03-04T07:04:59;83.90;;;38.80;;
1601;SDS011;794;48.592;9.634;2023-03-04T07:07:26;78.83;;;39.47;;
1601;SDS011;794;48.592;9.634;2023-03-04T07:09:54;75.77;;;41.93;;
1601;SDS011;794;48.592;9.634;2023-03-04T07:12:21;89.03;;;47.43;;
1601;SDS011;794;48.592;9.634;2023-03-04T07:14:48;87.23;;;44.83;;
1601;SDS011;794;48.592;9.634;2023-03-04T07:17:15;86.17;;;45.27;;
1601;SDS011;794;48.592;9.634;2023-03-04T07:19:42;72.10;;;38.40;;
1601;SDS011;794;48.592;9.634;2023-03-04T07:22:09;73.10;;;36.53;;
1601;SDS011;794;48.592;9.634;2023-03-04T07:24:36;74.53;;;39.37;;
1601;SDS011;794;48.592;9.634;2023-03-04T07:27:05;82.23;;;44.00;;
1601;SDS011;794;48.592;9.634;2023-03-04T07:29:32;75.17;;;41.77;;
1601;SDS011;794;48.592;9.634;2023-03-04T07:31:59;69.53;;;38.30;;
1601;SDS011;794;48.592;9.634;2023-03-04T07:34:26;72.60;;;35.17;;
1601;SDS011;794;48.592;9.634;2023-03-04T07:36:53;68.20;;;35.60;;
1601;SDS011;794;48.592;9.634;2023-03-04T07:39:19;55.73;;;36.13;;
1601;SDS011;794;48.592;9.634;2023-03-04T07:41:46;56.07;;;36.60;;
1601;SDS011;794;48.592;9.634;2023-03-04T07:44:15;72.50;;;36.57;;
1601;SDS011;794;48.592;9.634;2023-03-04T07:46:42;61.03;;;33.93;;
1601;SDS011;794;48.592;9.634;2023-03-04T07:49:10;66.43;;;35.80;;
1601;SDS011;794;48.592;9.634;2023-03-04T07:51:38;55.43;;;31.93;;
1601;SDS011;794;48.592;9.634;2023-03-04T07:54:05;57.03;;;31.63;;
1601;SDS011;794;48.592;9.634;2023-03-04T07:56:32;49.20;;;31.97;;
1601;SDS011;794;48.592;9.634;2023-03-04T07:59:00;53.17;;;33.40;;
1601;SDS011;794;48.592;9.634;2023-03-04T08:01:29;53.17;;;33.03;;
1601;SDS011;794;48.592;9.634;2023-03-04T08:03:57;56.23;;;33.80;;
1601;SDS011;794;48.592;9.634;2023-03-04T08:06:25;55.20;;;30.60;;
1601;SDS011;794;48.592;9.634;2023-03-04T08:08:55;44.67;;;30.13;;
1601;SDS011;794;48.592;9.634;2023-03-04T08:11:23;52.73;;;32.97;;
1601;SDS011;794;48.592;9.634;2023-03-04T08:13:50;52.63;;;31.27;;
1601;SDS011;794;48.592;9.634;2023-03-04T08:16:18;56.73;;;31.70;;
1601;SDS011;794;48.592;9.634;2023-03-04T08:18:48;52.23;;;27.90;;
1601;SDS011;794;48.592;9.634;2023-03-04T08:21:17;52.00;;;30.27;;
1601;SDS011;794;48.592;9.634;2023-03-04T08:23:46;44.90;;;28.17;;
1601;SDS011;794;48.592;9.634;2023-03-04T08:26:15;53.37;;;32.73;;
1601;SDS011;794;48.592;9.634;2023-03-04T08:28:44;51.97;;;29.50;;
1601;SDS011;794;48.592;9.634;2023-03-04T08:31:11;59.40;;;30.57;;
1601;SDS011;794;48.592;9.634;2023-03-04T08:33:39;47.57;;;31.47;;
1601;SDS011;794;48.592;9.634;2023-03-04T08:36:08;57.20;;;32.57;;
1601;SDS011;794;48.592;9.634;2023-03-04T08:38:35;52.87;;;31.90;;
1601;SDS011;794;48.592;9.634;2023-03-04T08:41:02;53.03;;;30.83;;
1601;SDS011;794;48.592;9.634;2023-03-04T08:43:29;54.50;;;30.00;;
1601;SDS011;794;48.592;9.634;2023-03-04T08:45:57;55.63;;;31.13;;
1601;SDS011;794;48.592;9.634;2023-03-04T08:48:24;47.20;;;26.30;;
1601;SDS011;794;48.592;9.634;2023-03-04T08:50:51;42.63;;;26.60;;
1601;SDS011;794;48.592;9.634;2023-03-04T08:53:20;56.03;;;28.27;;
1601;SDS011;794;48.592;9.634;2023-03-04T08:55:47;50.50;;;26.90;;
1601;SDS011;794;48.592;9.634;2023-03-04T08:58:16;48.60;;;27.80;;
1601;SDS011;794;48.592;9.634;2023-03-04T09:00:43;50.67;;;29.10;;
1601;SDS011;794;48.592;9.634;2023-03-04T09:03:13;56.53;;;28.70;;
1601;SDS011;794;48.592;9.634;2023-03-04T09:05:43;45.10;;;25.23;;
1601;SDS011;794;48.592;9.634;2023-03-04T09:08:11;53.23;;;28.93;;
1601;SDS011;794;48.592;9.634;2023-03-04T09:10:42;54.23;;;31.00;;
1601;SDS011;794;48.592;9.634;2023-03-04T09:13:13;45.97;;;28.00;;
1601;SDS011;794;48.592;9.634;2023-03-04T09:15:42;53.77;;;28.57;;
1601;SDS011;794;48.592;9.634;2023-03-04T09:18:13;47.10;;;27.53;;
1601;SDS011;794;48.592;9.634;2023-03-04T09:20:41;47.27;;;27.67;;
1601;SDS011;794;48.592;9.634;2023-03-04T09:23:08;50.23;;;27.60;;
1601;SDS011;794;48.592;9.634;2023-03-04T09:25:36;54.70;;;29.00;;
1601;SDS011;794;48.592;9.634;2023-03-04T09:28:05;62.07;;;30.30;;
1601;SDS011;794;48.592;9.634;2023-03-04T09:30:32;55.23;;;28.33;;
1601;SDS011;794;48.592;9.634;2023-03-04T09:33:00;48.83;;;26.07;;
1601;SDS011;794;48.592;9.634;2023-03-04T09:35:27;44.50;;;26.77;;
1601;SDS011;794;48.592;9.634;2023-03-04T09:37:55;46.17;;;27.47;;
1601;SDS011;794;48.592;9.634;2023-03-04T09:40:22;54.03;;;27.40;;
1601;SDS011;794;48.592;9.634;2023-03-04T09:42:53;45.20;;;23.83;;
1601;SDS011;794;48.592;9.634;2023-03-04T09:45:26;48.97;;;27.87;;
1601;SDS011;794;48.592;9.634;2023-03-04T09:47:59;46.70;;;24.60;;
1601;SDS011;794;48.592;9.634;2023-03-04T09:50:27;51.67;;;24.70;;
1601;SDS011;794;48.592;9.634;2023-03-04T09:53:02;45.60;;;23.57;;
1601;SDS011;794;48.592;9.634;2023-03-04T09:55:35;51.10;;;25.77;;
1601;SDS011;794;48.592;9.634;2023-03-04T09:58:08;47.70;;;26.10;;
1601;SDS011;794;48.592;9.634;2023-03-04T10:00:44;45.60;;;25.30;;
1601;SDS011;794;48.592;9.634;2023-03-04T10:03:14;57.40;;;25.83;;
1601;SDS011;794;48.592;9.634;2023-03-04T10:05:47;56.83;;;25.40;;
1601;SDS011;794;48.592;9.634;2023-03-04T10:08:23;52.97;;;28.27;;
1601;SDS011;794;48.592;9.634;2023-03-04T10:11:04;53.30;;;26.67;;
1601;SDS011;794;48.592;9.634;2023-03-04T10:13:39;47.53;;;27.07;;
1601;SDS011;794;48.592;9.634;2023-03-04T10:16:12;61.70;;;34.57;;
1601;SDS011;794;48.592;9.634;2023-03-04T10:18:44;55.33;;;30.23;;
1601;SDS011;794;48.592;9.634;2023-03-04T10:21:16;55.90;;;33.60;;
1601;SDS011;794;48.592;9.634;2023-03-04T10:23:48;50.63;;;29.80;;
1601;SDS011;794;48.592;9.634;2023-03-04T10:26:18;52.90;;;30.37;;
1601;SDS011;794;48.592;9.634;2023-03-04T10:28:47;47.80;;;28.40;;
1601;SDS011;794;48.592;9.634;2023-03-04T10:31:18;51.97;;;29.07;;
1601;SDS011;794;48.592;9.634;2023-03-04T10:33:47;46.30;;;25.00;;
1601;SDS011;794;48.592;9.634;2023-03-04T10:36:25;43.47;;;24.80;;
1601;SDS011;794;48.592;9.634;2023-03-04T10:39:02;49.67;;;26.67;;
1601;SDS011;794;48.592;9.634;2023-03-04T10:41:33;63.90;;;33.17;;
1601;SDS011;794;48.592;9.634;2023-03-04T10:44:00;40.17;;;24.20;;
1601;SDS011;794;48.592;9.634;2023-03-04T10:46:30;52.97;;;29.10;;
1601;SDS011;794;48.592;9.634;2023-03-04T10:48:57;46.43;;;26.03;;
1601;SDS011;794;48.592;9.634;2023-03-04T10:51:26;44.10;;;24.13;;
1601;SDS011;794;48.592;9.634;2023-03-04T10:53:57;48.57;;;25.27;;
1601;SDS011;794;48.592;9.634;2023-03-04T10:56:30;37.43;;;23.00;;
1601;SDS011;794;48.592;9.634;2023-03-04T11:02:17;45.30;;;21.60;;
1601;SDS011;794;48.592;9.634;2023-03-04T11:04:48;36.03;;;20.53;;
1601;SDS011;794;48.592;9.634;2023-03-04T11:07:21;38.53;;;22.33;;
1601;SDS011;794;48.592;9.634;2023-03-04T11:09:50;33.83;;;20.20;;
1601;SDS011;794;48.592;9.634;2023-03-04T11:12:18;42.60;;;22.50;;
1601;SDS011;794;48.592;9.634;2023-03-04T11:14:47;39.57;;;24.50;;
1601;SDS011;794;48.592;9.634;2023-03-04T11:17:18;37.93;;;21.23;;
1601;SDS011;794;48.592;9.634;2023-03-04T11:19:51;45.43;;;21.63;;
1601;SDS011;794;48.592;9.634;2023-03-04T11:22:22;38.50;;;22.07;;
1601;SDS011;794;48.592;9.634;2023-03-04T11:24:54;41.20;;;23.80;;
1601;SDS011;794;48.592;9.634;2023-03-04T11:27:29;34.23;;;21.47;;
1601;SDS011;794;48.592;9.634;2023-03-04T11:30:20;36.43;;;19.67;;
1601;SDS011;794;48.592;9.634;2023-03-04T11:32:55;39.40;;;20.30;;
1601;SDS011;794;48.592;9.634;2023-03-04T11:35:38;44.03;;;22.03;;
1601;SDS011;794;48.592;9.634;2023-03-04T11:38:14;45.70;;;22.30;;
1601;SDS011;794;48.592;9.634;2023-03-04T11:40:45;42.03;;;22.63;;
1601;SDS011;794;48.592;9.634;2023-03-04T11:43:18;35.27;;;22.93;;
1601;SDS011;794;48.592;9.634;2023-03-04T11:45:59;35.83;;;21.03;;
1601;SDS011;794;48.592;9.634;2023-03-04T11:48:46;42.50;;;23.50;;
1601;SDS011;794;48.592;9.634;2023-03-04T11:51:20;37.37;;;22.97;;
1601;SDS011;794;48.592;9.634;2023-03-04T11:53:54;44.30;;;24.27;;
1601;SDS011;794;48.592;9.634;2023-03-04T11:56:38;39.63;;;21.23;;
1601;SDS011;794;48.592;9.634;2023-03-04T12:02:14;38.07;;;21.97;;
1601;SDS011;794;48.592;9.634;2023-03-04T12:07:53;37.30;;;23.10;;
1601;SDS011;794;48.592;9.634;2023-03-04T12:10:43;37.40;;;21.00;;
1601;SDS011;794;48.592;9.634;2023-03-04T12:13:19;33.00;;;22.30;;
1601;SDS011;794;48.592;9.634;2023-03-04T12:16:00;37.93;;;21.27;;
1601;SDS011;794;48.592;9.634;2023-03-04T12:18:39;36.73;;;21.70;;
1601;SDS011;794;48.592;9.634;2023-03-04T12:21:31;34.33;;;22.20;;
1601;SDS011;794;48.592;9.634;2023-03-04T12:24:23;45.10;;;25.03;;
1601;SDS011;794;48.592;9.634;2023-03-04T12:27:00;34.00;;;22.33;;
1601;SDS011;794;48.592;9.634;2023-03-04T12:29:40;37.67;;;22.63;;
1601;SDS011;794;48.592;9.634;2023-03-04T12:32:14;39.10;;;21.07;;
1601;SDS011;794;48.592;9.634;2023-03-04T12:34:53;41.93;;;22.90;;
1601;SDS011;794;48.592;9.634;2023-03-04T12:37:45;35.17;;;23.13;;
1601;SDS011;794;48.592;9.634;2023-03-04T12:40:25;34.37;;;22.50;;
1601;SDS011;794;48.592;9.634;2023-03-04T12:43:04;36.17;;;20.87;;
1601;SDS011;794;48.592;9.634;2023-03-04T12:45:43;32.03;;;22.23;;
1601;SDS011;794;48.592;9.634;2023-03-04T12:48:17;40.90;;;25.50;;
1601;SDS011;794;48.592;9.634;2023-03-04T12:50:55;40.60;;;23.40;;
1601;SDS011;794;48.592;9.634;2023-03-04T12:53:36;38.53;;;23.00;;
1601;SDS011;794;48.592;9.634;2023-03-04T12:56:11;38.20;;;22.70;;
1601;SDS011;794;48.592;9.634;2023-03-04T12:58:48;35.80;;;23.00;;
1601;SDS011;794;48.592;9.634;2023-03-04T13:01:17;39.90;;;23.53;;
1601;SDS011;794;48.592;9.634;2023-03-04T13:03:51;38.23;;;22.37;;
1601;SDS011;794;48.592;9.634;2023-03-04T13:06:26;37.90;;;22.27;;
1601;SDS011;794;48.592;9.634;2023-03-04T13:09:03;34.67;;;22.27;;
1601;SDS011;794;48.592;9.634;2023-03-04T13:12:10;44.43;;;24.53;;
1601;SDS011;794;48.592;9.634;2023-03-04T13:14:41;42.47;;;24.37;;
1601;SDS011;794;48.592;9.634;2023-03-04T13:17:43;39.00;;;24.30;;
1601;SDS011;794;48.592;9.634;2023-03-04T13:20:23;35.00;;;22.50;;
1601;SDS011;794;48.592;9.634;2023-03-04T13:22:58;35.87;;;23.90;;
1601;SDS011;794;48.592;9.634;2023-03-04T13:25:32;30.27;;;20.90;;
1601;SDS011;794;48.592;9.634;2023-03-04T13:28:11;40.13;;;22.27;;
1601;SDS011;794;48.592;9.634;2023-03-04T13:33:58;37.93;;;21.53;;
1601;SDS011;794;48.592;9.634;2023-03-04T13:39:28;37.77;;;23.20;;
1601;SDS011;794;48.592;9.634;2023-03-04T13:42:01;33.27;;;22.17;;
1601;SDS011;794;48.592;9.634;2023-03-04T13:50:29;30.90;;;20.90;;
1601;SDS011;794;48.592;9.634;2023-03-04T13:56:09;36.97;;;24.47;;
1601;SDS011;794;48.592;9.634;2023-03-04T13:58:45;43.80;;;26.23;;
1601;SDS011;794;48.592;9.634;2023-03-04T14:01:24;40.50;;;27.53;;
1601;SDS011;794;48.592;9.634;2023-03-04T14:03:54;40.97;;;27.30;;
1601;SDS011;794;48.592;9.634;2023-03-04T14:06:21;48.53;;;28.83;;
1601;SDS011;794;48.592;9.634;2023-03-04T14:08:50;42.90;;;27.50;;
1601;SDS011;794;48.592;9.634;2023-03-04T14:11:22;41.97;;;26.77;;
1601;SDS011;794;48.592;9.634;2023-03-04T14:13:52;47.30;;;25.97;;
1601;SDS011;794;48.592;9.634;2023-03-04T14:16:22;53.07;;;30.13;;
1601;SDS011;794;48.592;9.634;2023-03-04T14:18:56;44.53;;;24.60;;
1601;SDS011;794;48.592;9.634;2023-03-04T14:21:24;38.43;;;24.20;;
1601;SDS011;794;48.592;9.634;2023-03-04T14:23:58;40.70;;;25.87;;
1601;SDS011;794;48.592;9.634;2023-03-04T14:26:27;39.47;;;25.10;;
1601;SDS011;794;48.592;9.634;2023-03-04T14:28:55;42.53;;;26.83;;
1601;SDS011;794;48.592;9.634;2023-03-04T14:31:25;38.23;;;24.20;;
1601;SDS011;794;48.592;9.634;2023-03-04T14:33:55;43.97;;;25.13;;
1601;SDS011;794;48.592;9.634;2023-03-04T14:36:26;39.50;;;24.10;;
1601;SDS011;794;48.592;9.634;2023-03-04T14:38:56;41.20;;;25.70;;
1601;SDS011;794;48.592;9.634;2023-03-04T14:41:25;52.03;;;26.60;;
1601;SDS011;794;48.592;9.634;2023-03-04T14:44:05;47.17;;;28.37;;
1601;SDS011;794;48.592;9.634;2023-03-04T14:46:39;50.70;;;29.43;;
1601;SDS011;794;48.592;9.634;2023-03-04T14:49:10;50.30;;;26.67;;
1601;SDS011;794;48.592;9.634;2023-03-04T14:51:41;49.63;;;28.30;;
1601;SDS011;794;48.592;9.634;2023-03-04T14:54:24;47.57;;;27.53;;
1601;SDS011;794;48.592;9.634;2023-03-04T14:56:54;45.53;;;28.00;;
1601;SDS011;794;48.592;9.634;2023-03-04T14:59:28;41.23;;;27.53;;
1601;SDS011;794;48.592;9.634;2023-03-04T15:02:17;50.33;;;31.07;;
1601;SDS011;794;48.592;9.634;2023-03-04T15:04:48;56.53;;;32.03;;
1601;SDS011;794;48.592;9.634;2023-03-04T15:07:17;57.80;;;32.40;;
1601;SDS011;794;48.592;9.634;2023-03-04T15:09:49;57.57;;;30.07;;
1601;SDS011;794;48.592;9.634;2023-03-04T15:42:35;46.77;;;27.10;;
1601;SDS011;794;48.592;9.634;2023-03-04T15:45:04;52.03;;;27.10;;
1601;SDS011;794;48.592;9.634;2023-03-04T15:47:45;48.23;;;27.20;;
1601;SDS011;794;48.592;9.634;2023-03-04T15:50:12;44.23;;;27.03;;
1601;SDS011;794;48.592;9.634;2023-03-04T15:52:39;50.77;;;27.50;;
1601;SDS011;794;48.592;9.634;2023-03-04T15:55:08;48.57;;;26.93;;
1601;SDS011;794;48.592;9.634;2023-03-04T15:57:40;44.90;;;25.70;;
1601;SDS011;794;48.592;9.634;2023-03-04T16:00:09;42.50;;;25.30;;
1601;SDS011;794;48.592;9.634;2023-03-04T16:02:37;37.93;;;23.97;;
1601;SDS011;794;48.592;9.634;2023-03-04T16:05:05;47.43;;;24.53;;
1601;SDS011;794;48.592;9.634;2023-03-04T16:07:33;38.70;;;24.40;;
1601;SDS011;794;48.592;9.634;2023-03-04T16:10:03;42.00;;;23.43;;
1601;SDS011;794;48.592;9.634;2023-03-04T16:12:33;34.33;;;20.57;;
1601;SDS011;794;48.592;9.634;2023-03-04T16:15:05;33.17;;;21.13;;
1601;SDS011;794;48.592;9.634;2023-03-04T16:17:37;36.53;;;21.20;;
1601;SDS011;794;48.592;9.634;2023-03-04T16:20:08;32.03;;;19.03;;
1601;SDS011;794;48.592;9.634;2023-03-04T16:22:36;33.87;;;21.23;;
1601;SDS011;794;48.592;9.634;2023-03-04T16:25:04;32.10;;;20.33;;
1601;SDS011;794;48.592;9.634;2023-03-04T16:27:32;36.33;;;18.80;;
1601;SDS011;794;48.592;9.634;2023-03-04T16:29:59;33.30;;;18.80;;
1601;SDS011;794;48.592;9.634;2023-03-04T16:32:27;33.80;;;19.43;;
1601;SDS011;794;48.592;9.634;2023-03-04T16:34:54;36.97;;;21.33;;
1601;SDS011;794;48.592;9.634;2023-03-04T16:37:21;35.07;;;21.07;;
1601;SDS011;794;48.592;9.634;2023-03-04T16:39:48;37.97;;;22.77;;
1601;SDS011;794;48.592;9.634;2023-03-04T16:42:16;40.87;;;22.57;;
1601;SDS011;794;48.592;9.634;2023-03-04T16:44:46;37.40;;;20.37;;
1601;SDS011;794;48.592;9.634;2023-03-04T16:47:13;33.63;;;20.40;;
1601;SDS011;794;48.592;9.634;2023-03-04T16:49:41;31.03;;;21.10;;
1601;SDS011;794;48.592;9.634;2023-03-04T16:52:13;32.33;;;21.17;;
1601;SDS011;794;48.592;9.634;2023-03-04T16:54:45;37.00;;;21.47;;
1601;SDS011;794;48.592;9.634;2023-03-04T16:57:12;35.77;;;21.43;;
1601;SDS011;794;48.592;9.634;2023-03-04T16:59:39;35.00;;;22.30;;
1601;SDS011;794;48.592;9.634;2023-03-04T17:02:08;40.37;;;20.40;;
1601;SDS011;794;48.592;9.634;2023-03-04T17:04:39;42.47;;;25.73;;
1601;SDS011;794;48.592;9.634;2023-03-04T17:07:07;49.90;;;28.60;;
1601;SDS011;794;48.592;9.634;2023-03-04T17:09:34;37.13;;;24.40;;
1601;SDS011;794;48.592;9.634;2023-03-04T17:12:02;37.77;;;24.53;;
1601;SDS011;794;48.592;9.634;2023-03-04T17:14:29;40.10;;;21.90;;
1601;SDS011;794;48.592;9.634;2023-03-04T17:16:57;34.70;;;19.47;;
1601;SDS011;794;48.592;9.634;2023-03-04T17:19:24;34.70;;;22.20;;
1601;SDS011;794;48.592;9.634;2023-03-04T17:21:51;41.07;;;20.77;;
1601;SDS011;794;48.592;9.634;2023-03-04T17:24:19;37.17;;;18.87;;
1601;SDS011;794;48.592;9.634;2023-03-04T17:26:46;33.97;;;20.17;;
1601;SDS011;794;48.592;9.634;2023-03-04T17:29:13;31.83;;;19.73;;
1601;SDS011;794;48.592;9.634;2023-03-04T17:31:40;35.67;;;20.20;;
1601;SDS011;794;48.592;9.634;2023-03-04T17:34:07;36.60;;;21.10;;
1601;SDS011;794;48.592;9.634;2023-03-04T17:36:34;35.53;;;21.00;;
1601;SDS011;794;48.592;9.634;2023-03-04T17:39:02;37.63;;;22.20;;
1601;SDS011;794;48.592;9.634;2023-03-04T17:41:31;34.43;;;20.43;;
1601;SDS011;794;48.592;9.634;2023-03-04T17:43:58;37.90;;;21.57;;
1601;SDS011;794;48.592;9.634;2023-03-04T17:46:27;34.97;;;20.03;;
1601;SDS011;794;48.592;9.634;2023-03-04T17:48:55;28.03;;;16.40;;
1601;SDS011;794;48.592;9.634;2023-03-04T17:51:28;32.80;;;18.37;;
1601;SDS011;794;48.592;9.634;2023-03-04T17:53:56;33.50;;;17.73;;
1601;SDS011;794;48.592;9.634;2023-03-04T17:56:25;35.93;;;20.17;;
1601;SDS011;794;48.592;9.634;2023-03-04T17:58:56;36.87;;;17.90;;
1601;SDS011;794;48.592;9.634;2023-03-04T18:01:24;30.60;;;19.07;;
1601;SDS011;794;48.592;9.634;2023-03-04T18:03:51;34.60;;;18.70;;
1601;SDS011;794;48.592;9.634;2023-03-04T18:06:18;41.23;;;21.70;;
1601;SDS011;794;48.592;9.634;2023-03-04T18:08:48;42.53;;;21.20;;
1601;SDS011;794;48.592;9.634;2023-03-04T18:11:15;39.20;;;20.50;;
1601;SDS011;794;48.592;9.634;2023-03-04T18:13:42;32.17;;;19.73;;
1601;SDS011;794;48.592;9.634;2023-03-04T18:16:11;29.50;;;17.67;;
1601;SDS011;794;48.592;9.634;2023-03-04T18:18:40;34.67;;;18.17;;
1601;SDS011;794;48.592;9.634;2023-03-04T18:21:08;33.57;;;17.83;;
1601;SDS011;794;48.592;9.634;2023-03-04T18:23:35;35.23;;;19.03;;
1601;SDS011;794;48.592;9.634;2023-03-04T18:26:02;38.23;;;20.23;;
1601;SDS011;794;48.592;9.634;2023-03-04T18:28:29;42.20;;;23.70;;
1601;SDS011;794;48.592;9.634;2023-03-04T18:30:56;44.33;;;23.33;;
1601;SDS011;794;48.592;9.634;2023-03-04T18:33:26;45.83;;;22.60;;
1601;SDS011;794;48.592;9.634;2023-03-04T18:35:57;35.53;;;17.60;;
1601;SDS011;794;48.592;9.634;2023-03-04T18:38:25;33.80;;;20.03;;
1601;SDS011;794;48.592;9.634;2023-03-04T18:40:56;34.07;;;19.37;;